createdAt,value
2022-08-21T00:00:27.483Z,97824.94
2022-08-21T00:03:06.691Z,97834.66
2022-08-21T00:05:41.110Z,97820.50
2022-08-21T00:08:11.781Z,97825.22
2022-08-21T00:10:42.767Z,97825.22
2022-08-21T00:13:19.016Z,97823.94
2022-08-21T00:15:50.636Z,97822.41
2022-08-21T00:18:21.448Z,97823.16
2022-08-21T00:20:51.630Z,97820.59
2022-08-21T00:23:21.850Z,97818.53
2022-08-21T00:25:52.793Z,97817.56
2022-08-21T00:28:25.573Z,97813.16
2022-08-21T00:30:55.691Z,97815.50
2022-08-21T00:33:25.951Z,97816.41
2022-08-21T00:35:56.570Z,97823.31
2022-08-21T00:38:26.472Z,97813.88
2022-08-21T00:41:13.445Z,97813.88
2022-08-21T00:43:54.966Z,97816.16
2022-08-21T00:46:28.237Z,97811.63
2022-08-21T00:48:59.414Z,97818.53
2022-08-21T00:51:38.462Z,97816.94
2022-08-21T00:54:15.464Z,97815.09
2022-08-21T00:56:49.813Z,97815.09
2022-08-21T00:59:25.302Z,97813.81
2022-08-21T01:01:55.734Z,97807.88
2022-08-21T01:04:28.010Z,97812.72
2022-08-21T01:06:58.605Z,97812.28
2022-08-21T01:09:28.992Z,97808.94
2022-08-21T01:11:59.925Z,97809.91
2022-08-21T01:14:33.127Z,97813.16
2022-08-21T01:17:05.363Z,97812.63
2022-08-21T01:19:35.904Z,97812.00
2022-08-21T01:22:09.178Z,97808.19
2022-08-21T01:24:39.665Z,97809.59
2022-08-21T01:27:10.003Z,97809.69
2022-08-21T01:29:46.328Z,97812.06
2022-08-21T01:32:21.975Z,97811.16
2022-08-21T01:34:55.204Z,97809.22
2022-08-21T01:37:28.122Z,97808.78
2022-08-21T01:39:58.406Z,97811.44
2022-08-21T01:42:28.908Z,97811.16
2022-08-21T01:44:59.120Z,97811.16
2022-08-21T01:47:29.598Z,97804.97
2022-08-21T01:49:59.746Z,97808.09
2022-08-21T01:52:33.045Z,97804.00
2022-08-21T01:55:03.733Z,97806.56
2022-08-21T01:57:33.964Z,97805.16
2022-08-21T02:00:04.240Z,97809.16
2022-08-21T02:02:42.370Z,97808.63
2022-08-21T02:05:15.798Z,97808.63
2022-08-21T02:07:51.605Z,97804.84
2022-08-21T02:10:27.261Z,97803.31
2022-08-21T02:12:58.317Z,97803.31
2022-08-21T02:15:28.990Z,97799.84
2022-08-21T02:18:02.638Z,97786.03
2022-08-21T02:20:38.007Z,97794.13
2022-08-21T02:23:13.790Z,97808.50
2022-08-21T02:25:46.859Z,97800.53
2022-08-21T02:28:18.723Z,97798.16
2022-08-21T02:30:51.952Z,97791.22
2022-08-21T02:33:22.584Z,97789.72
2022-08-21T02:35:54.082Z,97791.84
2022-08-21T02:38:31.838Z,97789.81
2022-08-21T02:41:02.130Z,97783.41
2022-08-21T02:43:32.887Z,97794.03
2022-08-21T02:46:03.744Z,97802.03
2022-08-21T02:48:36.015Z,97789.81
2022-08-21T02:51:11.000Z,97789.03
2022-08-21T02:53:45.252Z,97790.19
2022-08-21T02:56:20.450Z,97789.91
2022-08-21T02:58:54.264Z,97796.81
2022-08-21T03:01:24.874Z,97792.25
2022-08-21T03:03:55.209Z,97791.47
2022-08-21T03:06:26.674Z,97789.19
2022-08-21T03:08:59.504Z,97788.16
2022-08-21T03:11:29.950Z,97795.81
2022-08-21T03:14:00.476Z,97789.72
2022-08-21T03:16:34.773Z,97791.94
2022-08-21T03:19:05.737Z,97794.91
2022-08-21T03:21:35.935Z,97789.56
2022-08-21T03:24:10.087Z,97787.38
2022-08-21T03:26:41.477Z,97800.97
2022-08-21T03:29:11.947Z,97800.28
2022-08-21T03:31:42.104Z,97794.56
2022-08-21T03:34:13.076Z,97796.63
2022-08-21T03:36:43.427Z,97810.47
2022-08-21T03:39:16.292Z,97807.66
2022-08-21T03:41:46.532Z,97807.75
2022-08-21T03:44:16.809Z,97810.38
2022-08-21T03:46:46.961Z,97804.97
2022-08-21T03:49:17.181Z,97801.19
2022-08-21T03:51:47.698Z,97804.19
2022-08-21T03:54:32.141Z,97805.19
2022-08-21T03:57:02.590Z,97803.91
2022-08-21T03:59:32.782Z,97802.38
2022-08-21T04:02:05.825Z,97802.81
2022-08-21T04:04:37.224Z,97803.81
2022-08-21T04:07:08.114Z,97810.72
2022-08-21T04:09:40.988Z,97818.50
2022-08-21T04:12:12.626Z,97815.44
2022-08-21T04:14:42.928Z,97814.72
2022-08-21T04:17:13.084Z,97822.91
2022-08-21T04:19:43.292Z,97822.47
2022-08-21T04:22:13.822Z,97826.88
2022-08-21T04:24:47.206Z,97831.56
2022-08-21T04:27:17.356Z,97832.44
2022-08-21T04:29:47.498Z,97832.09
2022-08-21T04:32:17.653Z,97836.97
2022-08-21T04:34:47.918Z,97834.16
2022-08-21T04:37:18.208Z,97843.53
2022-08-21T04:39:53.531Z,97830.34
2022-08-21T04:42:23.890Z,97834.59
2022-08-21T04:44:54.376Z,97839.16
2022-08-21T04:47:25.083Z,97841.50
2022-08-21T04:50:15.481Z,97835.22
2022-08-21T04:52:59.408Z,97848.31
2022-08-21T04:55:32.662Z,97852.84
2022-08-21T04:58:04.318Z,97849.19
2022-08-21T05:00:34.530Z,97844.88
2022-08-21T05:03:07.460Z,97849.19
2022-08-21T05:05:38.291Z,97847.13
2022-08-21T05:08:11.486Z,97849.19
2022-08-21T05:10:45.526Z,97857.41
2022-08-21T05:13:16.499Z,97850.94
2022-08-21T05:15:46.678Z,97845.66
2022-08-21T05:18:17.599Z,97850.44
2022-08-21T05:20:48.478Z,97847.63
2022-08-21T05:23:19.187Z,97846.56
2022-08-21T05:25:51.670Z,97853.19
2022-08-21T05:28:21.917Z,97854.50
2022-08-21T05:30:52.088Z,97851.59
2022-08-21T05:33:22.246Z,97858.44
2022-08-21T05:35:56.788Z,97861.25
2022-08-21T05:38:28.320Z,97862.66
2022-08-21T05:41:01.191Z,97856.72
2022-08-21T05:43:31.510Z,97859.19
2022-08-21T05:46:01.701Z,97861.63
2022-08-21T05:48:31.879Z,97865.31
2022-08-21T05:51:09.248Z,97862.50
2022-08-21T05:53:39.789Z,97861.00
2022-08-21T05:56:13.823Z,97850.72
2022-08-21T05:58:44.486Z,97861.66
2022-08-21T06:01:15.861Z,97850.50
2022-08-21T06:03:46.846Z,97859.72
2022-08-21T06:06:17.029Z,97844.22
2022-08-21T06:08:47.649Z,97852.91
2022-08-21T06:11:20.919Z,97851.81
2022-08-21T06:13:51.179Z,97840.19
2022-08-21T06:16:22.188Z,97848.09
2022-08-21T06:18:53.133Z,97844.94
2022-08-21T06:21:25.990Z,97842.00
2022-08-21T06:23:56.751Z,97846.81
2022-08-21T06:26:30.297Z,97850.06
2022-08-21T06:29:00.578Z,97852.00
2022-08-21T06:31:32.330Z,97855.69
2022-08-21T06:34:02.970Z,97856.56
2022-08-21T06:36:32.951Z,97849.63
2022-08-21T06:39:02.999Z,97849.88
2022-08-21T06:41:49.480Z,97857.22
2022-08-21T06:44:21.147Z,97856.44
2022-08-21T06:46:51.644Z,97861.31
2022-08-21T06:49:21.855Z,97853.84
2022-08-21T06:51:52.170Z,97863.38
2022-08-21T06:54:22.344Z,97852.88
2022-08-21T06:56:55.151Z,97859.69
2022-08-21T06:59:25.254Z,97854.38
2022-08-21T07:01:55.483Z,97853.75
2022-08-21T07:04:25.706Z,97849.09
2022-08-21T07:06:56.013Z,97851.34
2022-08-21T07:09:26.183Z,97846.28
2022-08-21T07:12:01.655Z,97855.69
2022-08-21T07:14:32.020Z,97848.66
2022-08-21T07:17:02.284Z,97854.41
2022-08-21T07:19:32.544Z,97862.00
2022-08-21T07:22:05.675Z,97858.97
2022-08-21T07:24:35.766Z,97862.19
2022-08-21T07:27:10.159Z,97860.13
2022-08-21T07:29:40.608Z,97865.44
2022-08-21T07:32:11.129Z,97867.84
2022-08-21T07:34:41.394Z,97870.22
2022-08-21T07:37:11.698Z,97864.56
2022-08-21T07:39:41.940Z,97865.78
2022-08-21T07:42:14.994Z,97856.13
2022-08-21T07:44:45.453Z,97862.81
2022-08-21T07:47:15.726Z,97868.41
2022-08-21T07:49:59.819Z,97870.56
2022-08-21T07:52:31.168Z,97867.22
2022-08-21T07:55:06.101Z,97864.94
2022-08-21T07:57:39.769Z,97862.59
2022-08-21T08:00:14.557Z,97859.66
2022-08-21T08:02:44.921Z,97868.41
2022-08-21T08:05:15.596Z,97859.06
2022-08-21T08:07:46.221Z,97867.13
2022-08-21T08:10:16.184Z,97866.63
2022-08-21T08:12:49.811Z,97865.56
2022-08-21T08:15:24.029Z,97869.59
2022-08-21T08:17:55.946Z,97863.03
2022-08-21T08:20:27.435Z,97868.78
2022-08-21T08:22:58.797Z,97872.25
2022-08-21T08:25:36.248Z,97874.06
2022-08-21T08:28:16.478Z,97883.09
2022-08-21T08:30:50.292Z,97866.19
2022-08-21T08:33:21.309Z,97872.31
2022-08-21T08:35:54.700Z,97870.25
2022-08-21T08:38:26.720Z,97874.16
2022-08-21T08:41:14.668Z,97883.22
2022-08-21T08:43:55.020Z,97876.91
2022-08-21T08:46:34.931Z,97877.91
2022-08-21T08:49:12.390Z,97887.97
2022-08-21T08:51:53.024Z,97883.91
2022-08-21T08:54:32.639Z,97886.03
2022-08-21T08:57:04.173Z,97885.00
2022-08-21T08:59:45.986Z,97885.75
2022-08-21T09:02:18.589Z,97883.25
2022-08-21T09:04:52.894Z,97889.44
2022-08-21T09:07:40.298Z,97880.88
2022-08-21T09:10:19.715Z,97889.63
2022-08-21T09:13:01.249Z,97875.06
2022-08-21T09:15:44.906Z,97883.13
2022-08-21T09:18:35.433Z,97878.31
2022-08-21T09:21:14.615Z,97871.31
2022-08-21T09:23:58.299Z,97874.16
2022-08-21T09:26:31.172Z,97872.03
2022-08-21T09:29:04.470Z,97872.03
2022-08-21T09:31:40.740Z,97870.94
2022-08-21T09:34:14.893Z,97868.66
2022-08-21T09:36:48.820Z,97864.47
2022-08-21T09:39:29.293Z,97868.97
2022-08-21T09:42:00.490Z,97871.44
2022-08-21T09:44:34.071Z,97870.50
2022-08-21T09:47:07.093Z,97866.56
2022-08-21T09:49:40.684Z,97863.38
2022-08-21T09:52:23.323Z,97864.41
2022-08-21T09:54:58.215Z,97854.03
2022-08-21T09:57:46.351Z,97860.28
2022-08-21T10:00:24.448Z,97857.50
2022-08-21T10:02:57.486Z,97845.53
2022-08-21T10:05:30.754Z,97845.47
2022-08-21T10:08:01.036Z,97847.22
2022-08-21T10:10:39.632Z,97850.09
2022-08-21T10:13:17.288Z,97845.16
2022-08-21T10:15:55.177Z,97845.53
2022-08-21T10:18:33.410Z,97839.66
2022-08-21T10:21:12.001Z,97831.88
2022-08-21T10:23:58.711Z,97844.31
2022-08-21T10:26:45.146Z,97833.69
2022-08-21T10:29:29.942Z,97841.03
2022-08-21T10:32:25.967Z,97842.09
2022-08-21T10:35:12.420Z,97838.72
2022-08-21T10:38:02.714Z,97833.31
2022-08-21T10:40:40.901Z,97836.56
2022-08-21T10:43:27.970Z,97839.31
2022-08-21T10:46:11.312Z,97836.91
2022-08-21T10:48:50.827Z,97828.84
2022-08-21T10:51:35.550Z,97823.28
2022-08-21T10:54:14.253Z,97835.53
2022-08-21T10:56:45.756Z,97833.63
2022-08-21T10:59:38.091Z,97832.84
2022-08-21T11:02:19.623Z,97830.28
2022-08-21T11:04:58.366Z,97823.88
2022-08-21T11:07:37.125Z,97823.59
2022-08-21T11:10:17.418Z,97826.03
2022-08-21T11:12:57.299Z,97828.47
2022-08-21T11:15:43.024Z,97825.66
2022-08-21T11:18:26.170Z,97826.09
2022-08-21T11:21:08.538Z,97825.66
2022-08-21T11:23:50.690Z,97825.00
2022-08-21T11:26:32.227Z,97831.00
2022-08-21T11:29:12.664Z,97824.84
2022-08-21T11:31:59.429Z,97827.06
2022-08-21T11:34:47.071Z,97834.16
2022-08-21T11:37:28.234Z,97830.00
2022-08-21T11:40:10.293Z,97823.38
2022-08-21T11:42:51.473Z,97818.66
2022-08-21T11:45:45.812Z,97819.56
2022-08-21T11:48:33.940Z,97823.63
2022-08-21T11:51:08.571Z,97812.94
2022-08-21T11:53:54.075Z,97811.38
2022-08-21T11:56:34.145Z,97808.44
2022-08-21T11:59:10.631Z,97803.13
2022-08-21T12:01:47.428Z,97804.19
2022-08-21T12:04:32.323Z,97801.88
2022-08-21T12:07:16.855Z,97803.16
2022-08-21T12:09:58.953Z,97806.56
2022-08-21T12:12:35.124Z,97805.28
2022-08-21T12:15:20.370Z,97799.41
2022-08-21T12:18:04.133Z,97799.16
2022-08-21T12:20:50.837Z,97797.25
2022-08-21T12:23:30.065Z,97797.47
2022-08-21T12:26:22.293Z,97798.03
2022-08-21T12:28:55.238Z,97800.72
2022-08-21T12:31:32.185Z,97798.13
2022-08-21T12:34:05.130Z,97787.16
2022-08-21T12:36:47.964Z,97788.91
2022-08-21T12:39:23.319Z,97799.25
2022-08-21T12:42:01.948Z,97788.16
2022-08-21T12:44:42.914Z,97787.22
2022-08-21T12:47:21.935Z,97783.22
2022-08-21T12:50:02.567Z,97783.75
2022-08-21T12:52:39.614Z,97777.53
2022-08-21T12:55:16.849Z,97776.38
2022-08-21T12:57:47.068Z,97765.47
2022-08-21T13:00:26.844Z,97769.50
2022-08-21T13:02:59.414Z,97767.88
2022-08-21T13:05:37.845Z,97765.50
2022-08-21T13:08:10.395Z,97761.25
2022-08-21T13:10:43.540Z,97765.09
2022-08-21T13:13:25.640Z,97759.97
2022-08-21T13:16:08.800Z,97764.78
2022-08-21T13:19:00.423Z,97758.72
2022-08-21T13:21:36.400Z,97762.38
2022-08-21T13:24:42.951Z,97771.63
2022-08-21T13:27:24.833Z,97768.25
2022-08-21T13:30:09.193Z,97763.72
2022-08-21T13:32:47.166Z,97764.78
2022-08-21T13:35:21.381Z,97755.50
2022-08-21T13:37:53.489Z,97763.38
2022-08-21T13:40:32.643Z,97765.53
2022-08-21T13:43:04.866Z,97760.28
2022-08-21T13:45:37.124Z,97765.78
2022-08-21T13:48:10.010Z,97762.78
2022-08-21T13:50:42.366Z,97760.94
2022-08-21T13:53:27.967Z,97758.78
2022-08-21T13:56:00.687Z,97774.97
2022-08-21T13:58:34.343Z,97760.44
2022-08-21T14:01:06.662Z,97761.72
2022-08-21T14:03:45.687Z,97759.84
2022-08-21T14:06:17.212Z,97752.09
2022-08-21T14:08:55.493Z,97760.41
2022-08-21T14:11:26.781Z,97758.91
2022-08-21T14:14:04.862Z,97760.53
2022-08-21T14:16:48.039Z,97762.91
2022-08-21T14:19:28.588Z,97746.81
2022-08-21T14:21:59.029Z,97750.44
2022-08-21T14:24:35.759Z,97745.69
2022-08-21T14:27:10.040Z,97750.94
2022-08-21T14:29:44.521Z,97757.41
2022-08-21T14:32:21.627Z,97754.00
2022-08-21T14:35:01.160Z,97749.75
2022-08-21T14:37:31.483Z,97743.03
2022-08-21T14:40:02.487Z,97740.69
2022-08-21T14:42:33.104Z,97747.84
2022-08-21T14:45:09.171Z,97745.44
2022-08-21T14:47:39.340Z,97741.19
2022-08-21T14:50:13.975Z,97750.56
2022-08-21T14:52:46.728Z,97745.78
2022-08-21T14:55:19.815Z,97751.47
2022-08-21T14:57:54.487Z,97741.91
2022-08-21T15:00:36.036Z,97753.09
2022-08-21T15:03:06.768Z,97740.09
2022-08-21T15:05:40.502Z,97744.28
2022-08-21T15:08:10.974Z,97743.38
2022-08-21T15:10:57.108Z,97742.38
2022-08-21T15:13:32.233Z,97737.59
2022-08-21T15:16:02.975Z,97737.69
2022-08-21T15:18:34.535Z,97739.84
2022-08-21T15:21:07.604Z,97740.00
2022-08-21T15:23:39.949Z,97742.28
2022-08-21T15:26:14.205Z,97739.03
2022-08-21T15:28:44.967Z,97743.66
2022-08-21T15:31:15.168Z,97739.41
2022-08-21T15:33:45.439Z,97749.78
2022-08-21T15:36:18.224Z,97745.00
2022-08-21T15:38:49.607Z,97742.31
2022-08-21T15:41:19.955Z,97742.03
2022-08-21T15:43:55.560Z,97735.47
2022-08-21T15:46:25.932Z,97741.06
2022-08-21T15:48:59.735Z,97734.16
2022-08-21T15:51:32.968Z,97742.19
2022-08-21T15:54:03.740Z,97749.63
2022-08-21T15:56:40.256Z,97742.22
2022-08-21T15:59:16.921Z,97743.41
2022-08-21T16:01:47.821Z,97746.09
2022-08-21T16:04:27.985Z,97748.97
2022-08-21T16:07:05.396Z,97744.75
2022-08-21T16:09:37.911Z,97736.31
2022-08-21T16:12:08.715Z,97750.91
2022-08-21T16:14:39.987Z,97741.59
2022-08-21T16:17:10.724Z,97737.03
2022-08-21T16:19:41.465Z,97735.50
2022-08-21T16:22:14.320Z,97734.84
2022-08-21T16:24:44.679Z,97736.97
2022-08-21T16:27:15.337Z,97738.09
2022-08-21T16:29:48.732Z,97736.38
2022-08-21T16:32:20.265Z,97733.31
2022-08-21T16:34:52.709Z,97737.28
2022-08-21T16:37:27.344Z,97732.94
2022-08-21T16:39:57.673Z,97732.50
2022-08-21T16:42:28.739Z,97740.03
2022-08-21T16:44:59.668Z,97739.03
2022-08-21T16:47:29.909Z,97727.50
2022-08-21T16:49:59.844Z,97733.50
2022-08-21T16:52:32.632Z,97729.97
2022-08-21T16:55:02.798Z,97722.41
2022-08-21T16:57:33.012Z,97719.78
2022-08-21T17:00:04.877Z,97720.19
2022-08-21T17:02:39.886Z,97712.28
2022-08-21T17:05:13.984Z,97718.75
2022-08-21T17:07:47.716Z,97716.91
2022-08-21T17:10:19.661Z,97718.09
2022-08-21T17:12:56.550Z,97721.53
2022-08-21T17:15:31.279Z,97724.59
2022-08-21T17:18:02.215Z,97716.88
2022-08-21T17:20:33.278Z,97729.59
2022-08-21T17:23:06.665Z,97726.41
2022-08-21T17:25:37.622Z,97726.63
2022-08-21T17:28:07.946Z,97729.66
2022-08-21T17:30:42.898Z,97732.50
2022-08-21T17:33:13.235Z,97736.31
2022-08-21T17:35:46.719Z,97734.63
2022-08-21T17:38:19.619Z,97737.28
2022-08-21T17:40:51.160Z,97738.25
2022-08-21T17:43:21.859Z,97744.09
2022-08-21T17:45:52.150Z,97734.69
2022-08-21T17:48:25.529Z,97745.22
2022-08-21T17:50:55.941Z,97747.66
2022-08-21T17:53:28.816Z,97745.63
2022-08-21T17:55:59.395Z,97743.34
2022-08-21T17:58:29.802Z,97740.88
2022-08-21T18:01:00.364Z,97751.97
2022-08-21T18:03:30.632Z,97744.81
2022-08-21T18:06:07.889Z,97746.84
2022-08-21T18:08:40.683Z,97755.13
2022-08-21T18:11:23.772Z,97750.16
2022-08-21T18:13:55.940Z,97749.19
2022-08-21T18:16:26.725Z,97755.22
2022-08-21T18:18:57.834Z,97762.69
2022-08-21T18:21:28.784Z,97758.34
2022-08-21T18:24:01.910Z,97768.09
2022-08-21T18:26:35.821Z,97769.75
2022-08-21T18:29:12.165Z,97770.81
2022-08-21T18:31:46.395Z,97772.66
2022-08-21T18:34:28.079Z,97778.25
2022-08-21T18:36:59.957Z,97769.72
2022-08-21T18:39:36.739Z,97783.22
2022-08-21T18:42:13.606Z,97778.63
2022-08-21T18:44:47.908Z,97777.03
2022-08-21T18:47:26.006Z,97777.19
2022-08-21T18:49:56.714Z,97790.16
2022-08-21T18:52:28.567Z,97786.91
2022-08-21T18:55:05.888Z,97787.22
2022-08-21T18:57:40.005Z,97785.25
2022-08-21T19:00:15.472Z,97782.91
2022-08-21T19:02:46.488Z,97784.69
2022-08-21T19:05:20.210Z,97789.28
2022-08-21T19:07:55.232Z,97799.50
2022-08-21T19:10:29.567Z,97798.88
2022-08-21T19:13:04.175Z,97795.97
2022-08-21T19:15:39.932Z,97792.81
2022-08-21T19:18:21.398Z,97793.47
2022-08-21T19:20:59.165Z,97804.03
2022-08-21T19:23:31.328Z,97795.88
2022-08-21T19:26:11.123Z,97799.81
2022-08-21T19:28:49.188Z,97796.53
2022-08-21T19:31:23.611Z,97797.31
2022-08-21T19:34:01.518Z,97803.69
2022-08-21T19:36:49.736Z,97801.53
2022-08-21T19:39:21.458Z,97801.13
2022-08-21T19:41:58.202Z,97802.94
2022-08-21T19:44:32.084Z,97802.94
2022-08-21T19:47:09.238Z,97796.91
2022-08-21T19:49:46.562Z,97811.50
2022-08-21T19:52:18.359Z,97800.06
2022-08-21T19:54:49.280Z,97800.69
2022-08-21T19:57:22.833Z,97807.50
2022-08-21T19:59:53.406Z,97803.41
2022-08-21T20:02:25.542Z,97804.69
2022-08-21T20:04:56.047Z,97805.69
2022-08-21T20:07:27.131Z,97799.06
2022-08-21T20:09:57.851Z,97801.56
2022-08-21T20:12:30.552Z,97797.56
2022-08-21T20:15:02.011Z,97796.13
2022-08-21T20:17:32.464Z,97790.31
2022-08-21T20:20:02.937Z,97787.59
2022-08-21T20:22:33.767Z,97800.50
2022-08-21T20:25:04.318Z,97793.22
2022-08-21T20:27:41.293Z,97797.22
2022-08-21T20:30:14.145Z,97797.63
2022-08-21T20:32:44.547Z,97791.88
2022-08-21T20:35:15.675Z,97790.69
2022-08-21T20:37:45.977Z,97787.22
2022-08-21T20:40:33.006Z,97782.69
2022-08-21T20:43:07.437Z,97783.53
2022-08-21T20:45:43.418Z,97794.13
2022-08-21T20:48:17.889Z,97780.69
2022-08-21T20:51:00.852Z,97782.09
2022-08-21T20:53:43.773Z,97785.97
2022-08-21T20:56:28.349Z,97783.78
2022-08-21T20:59:13.638Z,97785.38
2022-08-21T21:01:46.287Z,97792.38
2022-08-21T21:04:37.049Z,97793.78
2022-08-21T21:07:12.556Z,97788.53
2022-08-21T21:09:49.257Z,97791.09
2022-08-21T21:12:28.029Z,97787.31
2022-08-21T21:15:10.090Z,97783.84
2022-08-21T21:17:49.133Z,97789.31
2022-08-21T21:20:29.350Z,97791.13
2022-08-21T21:23:16.778Z,97790.16
2022-08-21T21:26:01.236Z,97782.56
2022-08-21T21:28:44.410Z,97791.59
2022-08-21T21:31:18.107Z,97793.72
2022-08-21T21:33:50.464Z,97790.47
2022-08-21T21:36:32.571Z,97792.56
2022-08-21T21:39:13.190Z,97794.69
2022-08-21T21:41:54.305Z,97789.69
2022-08-21T21:44:43.172Z,97790.28
2022-08-21T21:47:27.171Z,97791.34
2022-08-21T21:50:23.278Z,97792.16
2022-08-21T21:53:15.340Z,97793.44
2022-08-21T21:56:08.416Z,97792.22
2022-08-21T22:02:01.110Z,97796.66
2022-08-21T22:04:51.121Z,97794.16
2022-08-21T22:07:32.265Z,97790.88
2022-08-21T22:10:19.755Z,97792.44
2022-08-21T22:13:13.094Z,97794.03
2022-08-21T22:15:55.815Z,97789.25
2022-08-21T22:18:30.064Z,97795.16
2022-08-21T22:21:13.773Z,97793.63
2022-08-21T22:23:49.210Z,97791.34
2022-08-21T22:26:25.795Z,97782.47
2022-08-21T22:28:57.430Z,97786.31
2022-08-21T22:31:31.434Z,97794.50
2022-08-21T22:34:17.638Z,97792.72
2022-08-21T22:36:59.526Z,97797.63
2022-08-21T22:39:38.802Z,97793.91
2022-08-21T22:42:14.035Z,97795.19
2022-08-21T22:44:53.586Z,97792.13
2022-08-21T22:47:30.086Z,97801.06
2022-08-21T22:50:04.733Z,97793.19
2022-08-21T22:52:40.607Z,97798.31
2022-08-21T22:55:26.230Z,97806.53
2022-08-21T22:58:14.166Z,97800.66
2022-08-21T23:00:57.831Z,97798.63
2022-08-21T23:03:34.516Z,97800.72
2022-08-21T23:06:12.638Z,97798.16
2022-08-21T23:08:46.346Z,97802.53
2022-08-21T23:11:24.436Z,97802.31
2022-08-21T23:13:57.216Z,97799.03
2022-08-21T23:16:47.406Z,97801.59
2022-08-21T23:19:38.135Z,97811.78
2022-08-21T23:22:38.785Z,97805.72
2022-08-21T23:25:46.020Z,97809.31
2022-08-21T23:28:29.518Z,97804.50
2022-08-21T23:31:13.357Z,97804.78
2022-08-21T23:34:05.974Z,97811.19
2022-08-21T23:37:06.841Z,97813.50
2022-08-21T23:40:11.280Z,97807.94
2022-08-21T23:43:04.575Z,97806.69
2022-08-21T23:48:46.833Z,97805.94
2022-08-21T23:51:26.020Z,97809.28
2022-08-21T23:54:08.216Z,97806.53
2022-08-21T23:57:00.268Z,97802.97
2022-08-21T23:59:46.953Z,97810.09
